Time;durP1;ratioP1;P1;durP2;ratioP2;P2;SDS_P1;SDS_P2;PMS_P1;PMS_P2;Temp;Humidity;BMP_temperature;BMP_pressure;BME280_temperature;BME280_humidity;BME280_pressure;Samples;Min_cycle;Max_cycle;Signal;HPM_P1;HPM_P2
2023/10/26 00:01:19;;;;;;;29.02;14.88;;;;;;;9.90;100.00;99482.09;5022482;28;20034;-73
2023/10/26 00:03:44;;;;;;;25.65;14.65;;;;;;;9.93;100.00;99492.56;5022656;28;20046;-73
2023/10/26 00:06:10;;;;;;;25.40;15.40;;;;;;;9.91;100.00;99487.31;5023011;28;20607;-73
2023/10/26 00:08:35;;;;;;;28.88;14.93;;;;;;;9.87;100.00;99495.78;5022715;28;20033;-73
2023/10/26 00:11:02;;;;;;;26.05;14.32;;;;;;;9.84;100.00;99496.06;5033832;28;20017;-73
2023/10/26 00:13:27;;;;;;;26.15;13.82;;;;;;;9.86;100.00;99494.09;5018295;28;20479;-73
2023/10/26 00:15:52;;;;;;;26.13;14.55;;;;;;;9.85;100.00;99497.75;5022307;28;20034;-73
2023/10/26 00:18:17;;;;;;;26.33;14.85;;;;;;;9.86;100.00;99497.63;5006134;28;20386;-76
2023/10/26 00:20:45;;;;;;;28.15;15.85;;;;;;;9.87;100.00;99504.69;5000451;28;20373;-76
2023/10/26 00:23:10;;;;;;;25.92;14.75;;;;;;;9.88;100.00;99505.53;5008099;28;20053;-75
2023/10/26 00:25:35;;;;;;;25.95;13.75;;;;;;;9.87;100.00;99507.38;5000474;28;20033;-75
2023/10/26 00:28:01;;;;;;;27.55;15.00;;;;;;;9.88;100.00;99508.22;5010169;28;20368;-75
2023/10/26 00:30:26;;;;;;;28.15;14.15;;;;;;;9.87;100.00;99509.19;5009910;28;20038;-76
2023/10/26 00:32:51;;;;;;;28.60;14.85;;;;;;;9.84;100.00;99507.66;5017320;28;20025;-75
2023/10/26 00:35:17;;;;;;;25.13;13.60;;;;;;;9.88;100.00;99513.56;5008361;28;20328;-76
2023/10/26 00:37:42;;;;;;;26.80;14.80;;;;;;;9.89;100.00;99513.44;5015747;28;20030;-75
2023/10/26 00:40:08;;;;;;;28.48;14.18;;;;;;;9.88;100.00;99518.94;5018974;28;20026;-75
2023/10/26 00:42:33;;;;;;;28.10;14.55;;;;;;;9.90;100.00;99517.00;5009358;28;20026;-76
2023/10/26 00:44:59;;;;;;;25.98;13.98;;;;;;;9.90;100.00;99522.34;5010991;28;20049;-75
2023/10/26 00:47:25;;;;;;;24.30;13.60;;;;;;;9.87;100.00;99533.34;5009470;28;20111;-76
2023/10/26 00:49:51;;;;;;;28.27;14.90;;;;;;;9.89;100.00;99531.38;5009517;28;20025;-76
2023/10/26 00:52:17;;;;;;;24.77;13.82;;;;;;;9.86;100.00;99534.34;5002243;28;20034;-76
2023/10/26 00:54:42;;;;;;;24.52;12.40;;;;;;;9.83;100.00;99527.44;5016263;28;20047;-75
2023/10/26 00:57:09;;;;;;;24.23;12.75;;;;;;;9.83;100.00;99537.31;5009633;28;20030;-76
2023/10/26 00:59:35;;;;;;;26.63;12.68;;;;;;;9.84;100.00;99539.88;4997643;28;20057;-76
2023/10/26 01:02:02;;;;;;;23.92;12.50;;;;;;;9.84;100.00;99536.31;5008872;28;20025;-72
2023/10/26 01:04:28;;;;;;;24.73;12.65;;;;;;;9.80;100.00;99536.59;5009984;28;20030;-73
2023/10/26 01:06:53;;;;;;;24.30;13.30;;;;;;;9.81;100.00;99540.16;5009500;28;20486;-73
2023/10/26 01:09:19;;;;;;;24.63;12.40;;;;;;;9.80;100.00;99541.97;5008699;28;20580;-72
2023/10/26 01:11:45;;;;;;;24.75;13.05;;;;;;;9.77;100.00;99542.25;5012507;28;20038;-73
2023/10/26 01:14:11;;;;;;;26.25;13.50;;;;;;;9.77;100.00;99539.56;4998538;28;20025;-73
2023/10/26 01:16:36;;;;;;;23.75;13.30;;;;;;;9.76;100.00;99543.22;5009394;28;20037;-73
2023/10/26 01:19:03;;;;;;;24.75;13.00;;;;;;;9.77;100.00;99539.56;5008060;28;20104;-73
2023/10/26 01:21:29;;;;;;;24.98;13.45;;;;;;;9.76;100.00;99534.34;5016020;28;20026;-73
2023/10/26 01:23:54;;;;;;;26.20;12.90;;;;;;;9.74;100.00;99537.16;5009238;28;20086;-73
2023/10/26 01:26:20;;;;;;;28.67;14.07;;;;;;;9.73;100.00;99526.56;5008299;28;20464;-73
2023/10/26 01:28:45;;;;;;;25.10;12.75;;;;;;;9.68;100.00;99529.69;5009080;28;20048;-76
2023/10/26 01:31:14;;;;;;;28.73;13.18;;;;;;;9.64;100.00;99536.31;5013227;28;20064;-76
2023/10/26 01:33:39;;;;;;;25.52;12.60;;;;;;;9.60;100.00;99542.94;5009410;28;20040;-76
2023/10/26 01:36:05;;;;;;;26.55;12.90;;;;;;;9.56;100.00;99541.50;5008908;28;20244;-75
2023/10/26 01:38:30;;;;;;;25.13;12.32;;;;;;;9.53;100.00;99541.78;5011638;28;20038;-72
2023/10/26 01:40:55;;;;;;;24.40;13.35;;;;;;;9.48;100.00;99544.03;5019150;28;20032;-72
2023/10/26 01:43:21;;;;;;;26.33;13.98;;;;;;;9.40;100.00;99533.97;5011363;28;20553;-72
2023/10/26 01:45:46;;;;;;;25.27;12.57;;;;;;;9.37;100.00;99537.81;5021728;28;20048;-72
2023/10/26 01:48:11;;;;;;;23.27;12.48;;;;;;;9.31;100.00;99543.69;5023928;28;20022;-72
2023/10/26 01:50:37;;;;;;;22.08;10.68;;;;;;;9.29;100.00;99539.47;5006721;28;20041;-71
2023/10/26 01:53:02;;;;;;;23.75;11.52;;;;;;;9.24;100.00;99542.56;5013232;28;20033;-72
2023/10/26 01:55:27;;;;;;;24.38;12.80;;;;;;;9.23;100.00;99547.06;5012798;28;20449;-72
2023/10/26 01:57:52;;;;;;;23.73;12.77;;;;;;;9.26;100.00;99540.59;5015771;28;20018;-72
2023/10/26 02:00:18;;;;;;;25.65;12.52;;;;;;;9.27;100.00;99547.66;5008515;28;20064;-72
2023/10/26 02:02:46;;;;;;;25.10;12.07;;;;;;;9.26;100.00;99545.94;5003557;28;20053;-72
2023/10/26 02:05:11;;;;;;;25.30;13.38;;;;;;;9.24;100.00;99540.72;5013554;28;20026;-72
2023/10/26 02:07:36;;;;;;;23.98;12.55;;;;;;;9.24;100.00;99535.38;5006567;28;20040;-72
2023/10/26 02:10:02;;;;;;;23.98;12.43;;;;;;;9.24;100.00;99537.22;5020919;28;20028;-73
2023/10/26 02:12:27;;;;;;;23.23;11.35;;;;;;;9.19;100.00;99534.06;5017510;28;20515;-72
2023/10/26 02:14:53;;;;;;;25.23;13.10;;;;;;;9.17;100.00;99530.69;5012437;28;20034;-72
2023/10/26 02:17:18;;;;;;;24.70;11.15;;;;;;;9.11;100.00;99526.72;5003366;28;20153;-71
2023/10/26 02:19:43;;;;;;;26.50;12.15;;;;;;;9.04;100.00;99526.41;5012976;28;20030;-72
2023/10/26 02:22:08;;;;;;;24.98;11.75;;;;;;;9.03;100.00;99530.06;5014082;28;20117;-73
2023/10/26 02:24:34;;;;;;;24.52;11.85;;;;;;;9.00;100.00;99530.31;5004654;28;20030;-72
2023/10/26 02:26:59;;;;;;;24.00;11.85;;;;;;;8.95;100.00;99526.38;5003447;28;20052;-73
2023/10/26 02:29:24;;;;;;;22.70;11.02;;;;;;;8.94;100.00;99530.03;5014548;28;20049;-72
2023/10/26 02:31:50;;;;;;;22.90;10.88;;;;;;;8.90;100.00;99518.72;5019123;28;20041;-72
2023/10/26 02:34:15;;;;;;;24.35;12.18;;;;;;;8.86;100.00;99523.50;5004495;28;20037;-72
2023/10/26 02:36:40;;;;;;;23.20;11.75;;;;;;;8.87;100.00;99517.19;5024489;28;20025;-72
2023/10/26 02:39:06;;;;;;;28.95;12.38;;;;;;;8.87;100.00;99514.50;5019767;28;20360;-72
2023/10/26 02:41:31;;;;;;;23.85;11.77;;;;;;;8.84;100.00;99519.28;5022158;28;20028;-72
2023/10/26 02:43:56;;;;;;;23.92;11.18;;;;;;;8.80;100.00;99523.19;5012412;28;20029;-72
2023/10/26 02:46:23;;;;;;;23.65;11.90;;;;;;;8.77;100.00;99524.34;5014262;28;20117;-72
2023/10/26 02:48:49;;;;;;;22.88;10.48;;;;;;;8.82;100.00;99522.09;5016564;28;20111;-72
2023/10/26 02:51:14;;;;;;;24.48;12.20;;;;;;;8.80;100.00;99523.19;5006633;28;20022;-73
2023/10/26 02:53:42;;;;;;;24.63;13.13;;;;;;;8.79;100.00;99526.88;5013041;28;20050;-72
2023/10/26 02:56:07;;;;;;;23.65;12.32;;;;;;;8.75;100.00;99526.28;5006017;28;20026;-72
2023/10/26 02:58:33;;;;;;;24.67;12.15;;;;;;;8.76;100.00;99527.97;5028068;28;20099;-72
2023/10/26 03:00:58;;;;;;;22.73;11.07;;;;;;;8.76;100.00;99524.47;5013894;28;20026;-72
2023/10/26 03:03:24;;;;;;;25.90;11.75;;;;;;;8.71;100.00;99520.34;5007574;28;20450;-72
2023/10/26 03:05:49;;;;;;;24.33;11.57;;;;;;;8.66;100.00;99517.22;5020599;28;20033;-72
2023/10/26 03:08:15;;;;;;;23.70;11.73;;;;;;;8.67;100.00;99520.75;5012535;28;20377;-71
2023/10/26 03:10:40;;;;;;;23.08;11.10;;;;;;;8.65;100.00;99520.84;5008837;28;20176;-72
2023/10/26 03:13:05;;;;;;;23.20;11.07;;;;;;;8.59;100.00;99515.19;4997212;28;20033;-72
2023/10/26 03:15:31;;;;;;;22.75;11.27;;;;;;;8.57;100.00;99526.06;5003537;28;20097;-72
2023/10/26 03:17:57;;;;;;;23.65;11.48;;;;;;;8.52;100.00;99526.44;5020230;28;20106;-72
2023/10/26 03:20:22;;;;;;;23.92;12.80;;;;;;;8.50;100.00;99533.75;5011163;28;20110;-72
2023/10/26 03:22:47;;;;;;;23.30;10.88;;;;;;;8.46;100.00;99531.47;5013379;28;20128;-72
2023/10/26 03:25:16;;;;;;;24.77;11.98;;;;;;;8.38;100.00;99535.63;4998831;28;20026;-72
2023/10/26 03:27:41;;;;;;;23.85;11.50;;;;;;;8.34;100.00;99534.19;5017026;28;20386;-72
2023/10/26 03:30:08;;;;;;;21.45;10.35;;;;;;;8.34;100.00;99534.19;5013533;28;20030;-72
2023/10/26 03:32:33;;;;;;;23.67;11.30;;;;;;;8.32;100.00;99524.59;5016915;28;20093;-73
2023/10/26 03:34:59;;;;;;;28.67;12.60;;;;;;;8.29;100.00;99524.88;5005863;28;20049;-72
2023/10/26 03:37:25;;;;;;;27.88;12.55;;;;;;;8.25;100.00;99518.91;5004552;28;20278;-73
2023/10/26 03:39:50;;;;;;;26.45;12.90;;;;;;;8.29;100.00;99515.00;5016314;28;20502;-73
2023/10/26 03:42:15;;;;;;;24.42;12.70;;;;;;;8.36;100.00;99510.81;5016389;28;20022;-73
2023/10/26 03:44:41;;;;;;;24.20;11.95;;;;;;;8.36;100.00;99505.47;5004723;28;20029;-72
2023/10/26 03:47:06;;;;;;;25.52;12.70;;;;;;;8.38;100.00;99514.19;5005973;28;20501;-73
2023/10/26 03:49:31;;;;;;;28.20;13.13;;;;;;;8.37;100.00;99519.69;5015764;28;20037;-73
2023/10/26 03:51:56;;;;;;;37.63;17.45;;;;;;;8.39;100.00;99505.19;5003129;28;20037;-72
2023/10/26 03:54:22;;;;;;;37.88;15.57;;;;;;;8.46;100.00;99497.50;5015332;28;20040;-72
2023/10/26 03:56:47;;;;;;;58.67;18.63;;;;;;;8.50;100.00;99496.25;5015225;28;20029;-71
2023/10/26 03:59:12;;;;;;;29.85;14.95;;;;;;;8.49;100.00;99491.91;5010553;28;20046;-76
2023/10/26 04:01:38;;;;;;;35.65;15.65;;;;;;;8.49;100.00;99499.06;5001062;28;20113;-76
2023/10/26 04:04:03;;;;;;;53.08;18.08;;;;;;;8.49;100.00;99488.38;5010321;28;20403;-75
2023/10/26 04:06:30;;;;;;;46.70;18.00;;;;;;;8.54;100.00;99491.50;5009325;28;20367;-76
2023/10/26 04:08:56;;;;;;;47.03;19.17;;;;;;;8.57;100.00;99488.56;5008979;28;20675;-75
2023/10/26 04:11:22;;;;;;;51.35;18.48;;;;;;;8.55;100.00;99491.38;5008979;28;20030;-76
2023/10/26 04:13:47;;;;;;;73.43;19.90;;;;;;;8.55;100.00;99487.81;5009320;28;20197;-76
2023/10/26 04:16:12;;;;;;;89.38;18.80;;;;;;;8.53;100.00;99477.25;5008728;28;20029;-76
2023/10/26 04:18:38;;;;;;;57.63;16.60;;;;;;;8.49;100.00;99480.34;5013933;28;20021;-76
2023/10/26 04:21:04;;;;;;;55.38;17.65;;;;;;;8.50;100.00;99488.22;5008988;28;20087;-76
2023/10/26 04:23:29;;;;;;;51.47;17.25;;;;;;;8.52;100.00;99488.97;5017825;28;20052;-75
2023/10/26 04:25:55;;;;;;;55.63;18.52;;;;;;;8.50;100.00;99490.06;5009313;28;20118;-76
2023/10/26 04:28:20;;;;;;;60.22;18.83;;;;;;;8.54;100.00;99487.00;5011054;28;20519;-76
2023/10/26 04:30:47;;;;;;;100.28;17.88;;;;;;;8.48;100.00;99498.22;5000037;28;20036;-76
2023/10/26 04:33:13;;;;;;;88.25;19.77;;;;;;;8.46;100.00;99504.69;4993371;28;20080;-77
2023/10/26 04:35:42;;;;;;;55.67;17.55;;;;;;;8.47;100.00;99490.34;5008563;28;20491;-76
2023/10/26 04:38:08;;;;;;;47.85;17.83;;;;;;;8.42;100.00;99495.19;5000311;28;20029;-76
2023/10/26 04:40:34;;;;;;;64.28;16.95;;;;;;;8.37;100.00;99496.44;5008957;28;20025;-76
2023/10/26 04:42:59;;;;;;;48.70;16.67;;;;;;;8.36;100.00;99493.88;5008781;28;20048;-76
2023/10/26 04:45:24;;;;;;;40.97;16.02;;;;;;;8.32;100.00;99495.16;5009933;28;20032;-76
2023/10/26 04:47:50;;;;;;;65.82;15.07;;;;;;;8.30;100.00;99495.28;4999853;28;20097;-76
2023/10/26 04:50:15;;;;;;;45.55;13.93;;;;;;;8.30;100.00;99489.06;5008677;28;20034;-76
2023/10/26 04:52:40;;;;;;;72.63;15.43;;;;;;;8.25;100.00;99493.97;4998300;28;20026;-76
2023/10/26 04:55:06;;;;;;;74.97;14.25;;;;;;;8.24;100.00;99485.09;5015189;28;20030;-76
2023/10/26 04:57:31;;;;;;;105.05;17.52;;;;;;;8.19;100.00;99482.81;5009560;28;20025;-76
2023/10/26 04:59:56;;;;;;;81.43;16.77;;;;;;;8.19;100.00;99490.84;5009357;28;20096;-76
2023/10/26 05:02:22;;;;;;;59.67;14.50;;;;;;;8.13;100.00;99487.84;5003350;28;20017;-75
2023/10/26 05:04:47;;;;;;;51.95;13.27;;;;;;;8.17;100.00;99484.78;5011144;28;20025;-76
2023/10/26 05:07:12;;;;;;;54.50;14.13;;;;;;;8.15;100.00;99492.06;5016339;28;20239;-76
2023/10/26 05:09:38;;;;;;;39.13;12.88;;;;;;;8.08;100.00;99485.53;5009590;28;20041;-76
2023/10/26 05:12:03;;;;;;;50.22;12.20;;;;;;;8.08;100.00;99490.88;5006632;28;20109;-76
2023/10/26 05:14:29;;;;;;;42.58;12.65;;;;;;;8.04;100.00;99482.28;5007466;28;20049;-75
2023/10/26 05:16:54;;;;;;;38.05;13.45;;;;;;;8.05;100.00;99472.41;5008660;28;20029;-75
2023/10/26 05:19:19;;;;;;;45.58;13.60;;;;;;;8.04;100.00;99474.25;5017573;28;20471;-76
2023/10/26 05:21:44;;;;;;;39.33;12.68;;;;;;;8.08;100.00;99484.69;5007753;28;20021;-76
2023/10/26 05:24:10;;;;;;;33.10;12.85;;;;;;;8.08;100.00;99484.69;4990540;28;20375;-76
2023/10/26 05:26:35;;;;;;;49.80;13.02;;;;;;;8.09;100.00;99473.88;5007122;28;20026;-76
2023/10/26 05:29:03;;;;;;;62.00;14.10;;;;;;;8.13;100.00;99474.47;5003304;28;20043;-76
2023/10/26 05:31:28;;;;;;;67.15;16.50;;;;;;;8.14;100.00;99468.97;5003604;28;20374;-76
2023/10/26 05:33:53;;;;;;;72.93;15.55;;;;;;;8.15;100.00;99467.16;5005802;28;20033;-76
2023/10/26 05:36:19;;;;;;;47.17;14.43;;;;;;;8.13;100.00;99469.94;5001455;28;20133;-77
2023/10/26 05:38:44;;;;;;;54.33;14.57;;;;;;;8.12;100.00;99473.59;5002489;28;20026;-77
2023/10/26 05:41:11;;;;;;;51.95;15.73;;;;;;;8.10;100.00;99472.06;5010482;28;20072;-77
2023/10/26 05:43:36;;;;;;;36.67;14.30;;;;;;;8.05;100.00;99475.97;5000243;28;20037;-76
2023/10/26 05:46:03;;;;;;;45.88;13.02;;;;;;;8.02;100.00;99478.91;4987209;28;20037;-76
2023/10/26 05:48:30;;;;;;;55.03;14.10;;;;;;;8.02;100.00;99470.00;5002410;28;20153;-76
2023/10/26 05:50:55;;;;;;;65.65;16.00;;;;;;;8.05;100.00;99467.94;5001713;28;20034;-76
2023/10/26 05:53:20;;;;;;;55.13;13.73;;;;;;;8.04;100.00;99471.59;5000298;28;20092;-77
2023/10/26 05:55:56;;;;;;;31.63;12.90;;;;;;;8.04;100.00;99468.06;5004398;28;20029;-77
2023/10/26 05:58:21;;;;;;;34.38;12.52;;;;;;;7.97;100.00;99462.38;4995610;28;20088;-76
2023/10/26 06:00:46;;;;;;;39.78;13.85;;;;;;;8.02;100.00;99453.97;4985518;28;20013;-77
2023/10/26 06:03:12;;;;;;;51.85;14.60;;;;;;;7.98;100.00;99458.72;4998888;28;20032;-76
2023/10/26 06:05:37;;;;;;;64.45;15.27;;;;;;;7.96;100.00;99460.66;4983686;28;20083;-76
2023/10/26 06:08:02;;;;;;;37.63;13.77;;;;;;;7.99;100.00;99456.91;4984216;28;20037;-76
2023/10/26 06:10:28;;;;;;;49.38;13.93;;;;;;;7.97;100.00;99462.38;5000770;28;20069;-77
2023/10/26 06:12:53;;;;;;;82.20;15.95;;;;;;;7.92;100.00;99463.75;4982484;28;20073;-76
2023/10/26 06:15:18;;;;;;;51.88;14.73;;;;;;;7.96;100.00;99463.34;4979559;28;20030;-77
2023/10/26 06:17:43;;;;;;;59.30;16.45;;;;;;;7.99;100.00;99460.41;5003084;28;20501;-77
2023/10/26 06:20:09;;;;;;;71.10;16.73;;;;;;;8.01;100.00;99458.47;5002716;28;20084;-73
2023/10/26 06:22:35;;;;;;;83.70;18.52;;;;;;;8.00;100.00;99462.13;5002826;28;20399;-74
2023/10/26 06:25:00;;;;;;;75.63;19.08;;;;;;;8.02;100.00;99459.31;5001458;28;20353;-74
2023/10/26 06:27:25;;;;;;;59.30;15.38;;;;;;;8.02;100.00;99451.28;5000555;28;20069;-73
2023/10/26 06:29:51;;;;;;;57.00;16.33;;;;;;;8.07;100.00;99453.56;4984309;28;20080;-73
2023/10/26 06:32:17;;;;;;;69.75;18.55;;;;;;;8.09;100.00;99452.47;5000971;28;20030;-73
2023/10/26 06:34:43;;;;;;;56.15;18.27;;;;;;;8.13;100.00;99447.72;4987448;28;20037;-73
2023/10/26 06:37:09;;;;;;;58.33;17.35;;;;;;;8.14;100.00;99447.56;5004789;28;20132;-73
2023/10/26 06:39:34;;;;;;;48.55;16.95;;;;;;;8.13;100.00;99453.91;5014640;28;20033;-73
2023/10/26 06:42:00;;;;;;;51.55;17.27;;;;;;;8.17;100.00;99460.69;5005975;28;20348;-74
2023/10/26 06:44:25;;;;;;;53.15;17.40;;;;;;;8.18;100.00;99458.84;5006585;28;20038;-73
2023/10/26 06:46:50;;;;;;;59.38;20.13;;;;;;;8.18;100.00;99462.38;5008532;28;20099;-73
2023/10/26 06:49:15;;;;;;;45.25;19.30;;;;;;;8.21;100.00;99455.91;5007030;28;20487;-73
2023/10/26 06:51:41;;;;;;;40.67;16.73;;;;;;;8.19;100.00;99449.84;5003670;28;20419;-73
2023/10/26 06:54:06;;;;;;;37.45;16.20;;;;;;;8.17;100.00;99458.00;5000260;28;20030;-74
2023/10/26 06:56:31;;;;;;;40.15;16.15;;;;;;;8.19;100.00;99460.56;5005251;28;20025;-73
2023/10/26 06:58:57;;;;;;;45.65;16.35;;;;;;;8.21;100.00;99458.59;4990895;28;20042;-74
2023/10/26 07:01:22;;;;;;;54.30;17.40;;;;;;;8.26;100.00;99459.06;5007894;28;20025;-73
2023/10/26 07:03:50;;;;;;;61.80;17.70;;;;;;;8.25;100.00;99457.34;5011755;28;20083;-73
2023/10/26 07:06:15;;;;;;;51.58;16.95;;;;;;;8.23;100.00;99452.13;4989938;28;20055;-73
2023/10/26 07:08:40;;;;;;;39.60;16.25;;;;;;;8.22;100.00;99441.56;5001092;28;20026;-73
2023/10/26 07:11:06;;;;;;;46.30;17.38;;;;;;;8.27;100.00;99442.00;5005431;28;20037;-73
2023/10/26 07:13:31;;;;;;;45.05;17.08;;;;;;;8.29;100.00;99431.19;4999865;28;20029;-73
2023/10/26 07:16:01;;;;;;;47.60;17.63;;;;;;;8.30;100.00;99443.56;5009769;28;20120;-73
2023/10/26 07:18:27;;;;;;;32.38;15.75;;;;;;;8.31;100.00;99447.94;5009905;28;20030;-73
2023/10/26 07:20:53;;;;;;;56.53;19.77;;;;;;;8.34;100.00;99456.53;5008216;28;20021;-73
2023/10/26 07:23:18;;;;;;;52.47;18.25;;;;;;;8.39;100.00;99451.66;5010857;28;20054;-74
2023/10/26 07:25:44;;;;;;;64.63;17.67;;;;;;;8.36;100.00;99451.94;5008496;28;20065;-73
2023/10/26 07:28:10;;;;;;;39.85;15.13;;;;;;;8.36;100.00;99456.41;5010130;28;20519;-74
2023/10/26 07:30:39;;;;;;;37.65;16.10;;;;;;;8.36;100.00;99457.28;5016992;28;20106;-73
2023/10/26 07:33:05;;;;;;;53.38;16.35;;;;;;;8.38;100.00;99449.94;5011952;28;20044;-72
2023/10/26 07:35:30;;;;;;;44.10;15.45;;;;;;;8.35;100.00;99455.56;5017111;28;20034;-72
2023/10/26 07:37:56;;;;;;;52.42;18.05;;;;;;;8.36;100.00;99453.72;5011120;28;20061;-73
2023/10/26 07:40:21;;;;;;;50.33;17.17;;;;;;;8.38;100.00;99449.09;5015430;28;20101;-73
2023/10/26 07:42:47;;;;;;;43.40;16.55;;;;;;;8.36;100.00;99448.38;5003034;28;20025;-73
2023/10/26 07:45:12;;;;;;;56.35;17.95;;;;;;;8.34;100.00;99445.00;5015258;28;20054;-72
2023/10/26 07:47:38;;;;;;;30.65;14.35;;;;;;;8.42;100.00;99455.03;5021356;28;20132;-73
2023/10/26 07:50:03;;;;;;;36.45;15.80;;;;;;;8.44;100.00;99459.31;5009043;28;20029;-72
2023/10/26 07:52:29;;;;;;;41.38;14.25;;;;;;;8.44;100.00;99469.16;5017172;28;20045;-73
2023/10/26 07:54:54;;;;;;;48.35;16.63;;;;;;;8.43;100.00;99464.78;5000598;28;20419;-72
2023/10/26 07:57:20;;;;;;;45.83;17.30;;;;;;;8.44;100.00;99467.34;5001727;28;20124;-73
2023/10/26 07:59:45;;;;;;;35.65;15.80;;;;;;;8.49;100.00;99456.22;5015795;28;20045;-73
2023/10/26 08:02:11;;;;;;;32.53;15.13;;;;;;;8.50;100.00;99466.81;5015627;28;20100;-73
2023/10/26 08:04:36;;;;;;;28.17;15.05;;;;;;;8.55;100.00;99477.13;5014327;28;20049;-74
2023/10/26 08:07:01;;;;;;;41.35;16.08;;;;;;;8.51;100.00;99481.06;5016306;28;20459;-72
2023/10/26 08:09:31;;;;;;;32.47;15.35;;;;;;;8.52;100.00;99488.09;5016896;28;20084;-73
2023/10/26 08:11:58;;;;;;;29.73;14.88;;;;;;;8.54;100.00;99484.31;5024746;28;20053;-72
2023/10/26 08:14:23;;;;;;;30.52;15.35;;;;;;;8.57;100.00;99478.69;5011962;28;20037;-72
2023/10/26 08:16:49;;;;;;;31.65;14.80;;;;;;;8.61;100.00;99492.66;5006417;28;20037;-72
2023/10/26 08:19:16;;;;;;;30.48;15.00;;;;;;;8.61;100.00;99476.59;5015596;28;20432;-72
2023/10/26 08:21:41;;;;;;;41.20;15.57;;;;;;;8.64;100.00;99481.69;5012376;28;20049;-73
2023/10/26 08:24:07;;;;;;;30.38;15.48;;;;;;;8.66;100.00;99494.94;5001424;28;20118;-72
2023/10/26 08:26:32;;;;;;;56.15;17.50;;;;;;;8.68;100.00;99493.84;5016108;28;20037;-72
2023/10/26 08:28:57;;;;;;;34.80;15.52;;;;;;;8.66;100.00;99490.44;5016702;28;20041;-72
2023/10/26 08:31:23;;;;;;;37.85;18.33;;;;;;;8.67;100.00;99494.81;5015684;28;20651;-72
2023/10/26 08:33:48;;;;;;;32.72;16.90;;;;;;;8.68;100.00;99493.84;5012327;28;20107;-72
2023/10/26 08:36:13;;;;;;;34.25;18.48;;;;;;;8.70;100.00;99488.34;5007596;28;20030;-72
2023/10/26 08:38:39;;;;;;;36.30;19.02;;;;;;;8.71;100.00;99487.34;5017674;28;20026;-74
2023/10/26 08:41:04;;;;;;;35.47;18.08;;;;;;;8.71;100.00;99482.84;5015639;28;20088;-74
2023/10/26 08:43:32;;;;;;;34.22;17.15;;;;;;;8.72;100.00;99489.88;5015487;28;20375;-74
2023/10/26 08:46:00;;;;;;;35.05;19.08;;;;;;;8.80;100.00;99488.38;5013664;28;20033;-74
2023/10/26 08:48:28;;;;;;;34.33;17.63;;;;;;;8.84;100.00;99487.13;5000662;28;20021;-74
2023/10/26 08:50:55;;;;;;;37.05;19.83;;;;;;;8.84;100.00;99479.09;5010377;28;20046;-74
2023/10/26 08:53:20;;;;;;;37.03;19.30;;;;;;;8.81;100.00;99474.00;5010749;28;20388;-73
2023/10/26 08:55:52;;;;;;;44.17;20.33;;;;;;;8.83;100.00;99480.06;5008198;28;20034;-73
2023/10/26 08:58:20;;;;;;;33.97;18.60;;;;;;;8.89;100.00;99484.91;5013150;28;20057;-73
2023/10/26 09:00:45;;;;;;;31.83;18.27;;;;;;;8.90;100.00;99478.53;5022728;28;20033;-73
2023/10/26 09:03:10;;;;;;;38.22;19.70;;;;;;;8.88;100.00;99477.84;5015449;28;20040;-73
2023/10/26 09:05:55;;;;;;;34.83;18.60;;;;;;;8.93;100.00;99472.91;5015143;28;20184;-74
2023/10/26 09:08:27;;;;;;;33.03;17.67;;;;;;;9.00;100.00;99471.38;5018499;28;20025;-74
2023/10/26 09:10:52;;;;;;;33.97;19.58;;;;;;;9.05;100.00;99479.88;5024518;28;20370;-74
2023/10/26 09:13:25;;;;;;;35.13;20.10;;;;;;;9.08;100.00;99490.31;5017700;28;20036;-74
2023/10/26 09:15:53;;;;;;;37.55;19.83;;;;;;;9.14;100.00;99475.50;5018361;28;20057;-74
2023/10/26 09:18:20;;;;;;;32.38;19.27;;;;;;;9.12;100.00;99471.28;5018985;28;20018;-74
2023/10/26 09:21:04;;;;;;;36.08;20.40;;;;;;;9.20;100.00;99476.81;5024338;28;20026;-73
2023/10/26 09:23:32;;;;;;;37.22;21.27;;;;;;;9.21;100.00;99470.44;5017706;28;20041;-73
2023/10/26 09:25:59;;;;;;;37.28;22.55;;;;;;;9.17;100.00;99475.25;5026516;28;20045;-73
2023/10/26 09:28:24;;;;;;;34.03;21.00;;;;;;;9.19;100.00;99475.09;5018652;28;20049;-73
2023/10/26 09:30:49;;;;;;;39.22;22.83;;;;;;;9.23;100.00;99477.38;4999512;28;20127;-73
2023/10/26 09:33:25;;;;;;;36.42;21.83;;;;;;;9.25;100.00;99474.53;5022516;28;20060;-73
2023/10/26 09:35:51;;;;;;;34.88;21.30;;;;;;;9.24;100.00;99483.59;5012804;28;20025;-74
2023/10/26 09:38:21;;;;;;;38.28;20.67;;;;;;;9.30;100.00;99476.81;5000268;28;20087;-74
2023/10/26 09:40:47;;;;;;;34.92;20.17;;;;;;;9.33;100.00;99472.03;5014235;28;20097;-74
2023/10/26 09:43:12;;;;;;;35.85;19.75;;;;;;;9.34;100.00;99475.56;5012060;28;20442;-74
2023/10/26 09:45:38;;;;;;;37.95;21.20;;;;;;;9.38;100.00;99468.94;5024024;28;20029;-74
2023/10/26 09:48:05;;;;;;;38.63;22.65;;;;;;;9.40;100.00;99473.19;5018698;28;20030;-73
2023/10/26 09:50:38;;;;;;;36.50;22.05;;;;;;;9.45;100.00;99465.53;5019811;28;20101;-73
2023/10/26 09:53:03;;;;;;;35.30;20.92;;;;;;;9.47;100.00;99461.88;5016086;28;20089;-73
2023/10/26 09:55:30;;;;;;;42.08;22.80;;;;;;;9.51;100.00;99464.13;5016135;28;20060;-73
2023/10/26 09:58:01;;;;;;;33.80;20.45;;;;;;;9.53;100.00;99461.31;5019457;28;20030;-74
2023/10/26 10:00:34;;;;;;;40.10;21.38;;;;;;;9.54;100.00;99455.81;5016275;28;20050;-74
2023/10/26 10:03:09;;;;;;;39.22;21.48;;;;;;;9.59;100.00;99455.38;5024795;28;20073;-74
2023/10/26 10:05:39;;;;;;;42.03;21.13;;;;;;;9.56;100.00;99450.31;5011533;28;20388;-74
2023/10/26 10:08:05;;;;;;;40.20;21.45;;;;;;;9.56;100.00;99456.53;5004556;28;20025;-74
2023/10/26 10:10:30;;;;;;;34.25;20.83;;;;;;;9.54;100.00;99446.94;5015155;28;20463;-74
2023/10/26 10:12:56;;;;;;;35.55;20.75;;;;;;;9.56;100.00;99444.94;5013658;28;20112;-73
2023/10/26 10:15:35;;;;;;;34.47;19.55;;;;;;;9.57;100.00;99441.28;5013740;28;20033;-73
2023/10/26 10:18:03;;;;;;;36.65;20.63;;;;;;;9.56;100.00;99444.94;5011671;28;20057;-73
2023/10/26 10:20:30;;;;;;;36.17;20.42;;;;;;;9.56;100.00;99445.81;5015009;28;20018;-73
2023/10/26 10:22:58;;;;;;;39.55;21.95;;;;;;;9.61;100.00;99437.34;5008830;28;20025;-73
2023/10/26 10:25:49;;;;;;;35.58;19.67;;;;;;;9.62;100.00;99431.81;5018906;28;20026;-73
2023/10/26 10:28:18;;;;;;;33.10;18.60;;;;;;;9.62;100.00;99417.56;5017588;28;20040;-73
2023/10/26 10:31:00;;;;;;;37.15;20.73;;;;;;;9.63;100.00;99419.25;5024183;28;20446;-73
2023/10/26 10:33:27;;;;;;;32.13;18.90;;;;;;;9.63;100.00;99416.56;5018046;28;20036;-73
2023/10/26 10:36:01;;;;;;;33.58;19.73;;;;;;;9.61;100.00;99419.41;5025794;28;20034;-73
2023/10/26 10:38:31;;;;;;;30.55;18.48;;;;;;;9.62;100.00;99423.78;5029086;28;20395;-73
2023/10/26 10:41:06;;;;;;;34.05;20.17;;;;;;;9.65;100.00;99432.50;5022817;28;20045;-74
2023/10/26 10:43:31;;;;;;;36.08;18.33;;;;;;;9.69;100.00;99421.34;5025677;28;20113;-74
2023/10/26 10:45:56;;;;;;;32.70;20.67;;;;;;;9.68;100.00;99411.63;5027171;28;20061;-74
2023/10/26 10:48:22;;;;;;;33.05;19.80;;;;;;;9.71;100.00;99415.88;5017443;28;20060;-74
2023/10/26 10:50:51;;;;;;;34.55;20.27;;;;;;;9.71;100.00;99411.34;5016085;28;20072;-74
2023/10/26 10:53:16;;;;;;;34.78;19.63;;;;;;;9.76;100.00;99402.88;5013379;28;20386;-74
2023/10/26 10:55:43;;;;;;;34.55;19.60;;;;;;;9.79;100.00;99402.56;5028276;28;20033;-74
2023/10/26 10:58:09;;;;;;;31.05;17.85;;;;;;;9.80;100.00;99397.06;5027603;28;20030;-74
2023/10/26 11:00:37;;;;;;;30.90;17.38;;;;;;;9.80;100.00;99399.75;5012522;28;20048;-72
2023/10/26 11:03:02;;;;;;;28.92;17.25;;;;;;;9.83;100.00;99397.78;5017948;28;20037;-73
2023/10/26 11:05:41;;;;;;;29.80;16.40;;;;;;;9.84;100.00;99388.72;5011288;28;20099;-73
2023/10/26 11:08:07;;;;;;;29.77;16.30;;;;;;;9.90;100.00;99390.84;5011202;28;20518;-73
2023/10/26 11:10:33;;;;;;;30.70;16.98;;;;;;;9.95;100.00;99393.94;5017590;28;20030;-73
2023/10/26 11:12:59;;;;;;;31.65;17.25;;;;;;;9.97;100.00;99395.50;5021963;28;20295;-73